Race Coverage Navigation

TS # 30 / Ft Scott, KS  2019

 


TS STATS
TS Distance 60.01 
Total Distance 1778.76 
Miles To Go 1291.52 
TS Climbing 1729 
Total Climbing
TS  Elevation
TS  Net Elevation 2745 
Map Filename Open Map 
Directions Filename  
Latitude 37.84 
Longitude -94.69 
Google Map  TimeStation Map 


TS Arrival Data
Arr Ord  #/Name Arrival DT TS Dst Avg This TS Avg Overall
 1 377 - Christoph Strasser  06/16/2019 1:16 60.01  14.88  17 
 2 279 - Marko Baloh  06/16/2019 16:17 60.01  14.4  14.87 
 3 288 - Dave Haase  06/16/2019 18:14 60.01  17.23  14.63 
 4 609 - Jakob Olsen  06/16/2019 21:28 60.01  17.31  14.22 
 5 617 - SOLO.kiwi (Craig Harper)  06/17/2019 1:53 60.01  14.06  13.72 
 6 529 - Isa Pulver  06/17/2019 3:28 60.01  13.59  13.54 
 7 612 - Markus K. Brandl  06/17/2019 11:00 60.01  22.09  12.82 
 8 329 - Peter Oyler  06/17/2019 11:47 60.01  7.95  12.78 
 9 622 - Thomas Odom-Team Kyle Pease Foundation  06/17/2019 13:50 60.01  13.85  12.56 
 10 367 - Daniela Genovesi  06/17/2019 14:08 60.01  14.58  12.53 
 11 416 - Leah Goldstein  06/17/2019 14:50 60.01  14.52  12.46 
 12 623 - Ultra Paka Racing Team (Daniel Polman)  06/17/2019 16:20 60.01  16.75  12.34 
 13 603 - Alan Bradley  06/17/2019 20:04 60.01  10.88  12.04 
 14 615 - Philipp Amhof  06/17/2019 20:30 60.01  15.72  12 
 15 611 - Marcelo Soares " MIXIRICA "  06/18/2019 0:05 60.01  13.29  11.72 
 16 604 - Chieko Ozawa  06/18/2019 5:13 60.01  7.27  11.32 
 17 510 - John C. Tarlton  06/18/2019 6:12 60.01  11.43  11.28 
 18 559 - Team Martin RAAM 2019 (Martin Bergmeister)  06/18/2019 6:46 60.01  6.76  11.23 
 19 411 - Geoff Brunner  06/18/2019 7:11 60.01  7.83  11.21 
 20 442 - Joe Barr  06/18/2019 7:18 60.01  7.2  11.2 
 21 568 - Alexandra Meixner  06/18/2019 8:30 60.01  7.47  11.09 
 22 610 - Kabir Rachure  06/18/2019 11:03 60.01  12.46  10.93 
 23 399 - Valerio Zamboni  06/18/2019 16:30 60.01  13.09  10.59 
 24 618 - GREGORY ROBINSON  06/18/2019 19:52 60.01  11.65  10.36 
 25 T411 - team alpha - tischlerei groemmer  06/18/2019 21:17 60.01  23.53  22.82 
 26 T800 - Backstedt Racing Project 14  06/18/2019 21:26 60.01  25.18  22.82 
 27 424 - Team i RON man Veterans supporting Veterans  06/18/2019 21:46 60.01  8.72  10.27 
 28 161 - Seana Hogan  06/19/2019 1:32 60.01  13.34  10.03 
 29 T404 - Gentlemen of speed  06/19/2019 1:47 60.01  20.93  21.55 
 30 T401 - Data Techniques powered by Networks Centre  06/19/2019 1:59 60.01  20.12  21.48 
 31 T805 - Team Oceanside  06/19/2019 6:31 60.01  21.31  20.46 
 32 608 - Elin Starup  06/19/2019 6:49 60.01  8.53  9.73 
 33 T201 - EAT WELL  06/19/2019 7:12 60.01  19.89  20.17 
 34 T807 - Team ZOE International  06/19/2019 7:55 60.01  19.89  20.14 
 35 T407 - Julian Becker   06/19/2019 8:04 60.01  21.43  20.03 
 36 T802 - Scorchers  06/19/2019 10:02 60.01  21.31  19.65 
 37 T416 - Team Rotary Raams Polio  06/19/2019 10:58 60.01  20.46  19.43 
 38 T804 - Team FSHD Skyland Trail  06/19/2019 11:35 60.01  22.65  19.33 
 39 T408 - Radeln-fuer-Kinder (Cycling-for-Kids)  06/19/2019 11:52 60.01  23.69  19.22 
 40 T400 - Cantastic4  06/19/2019 12:43 60.01  23.53  19.01 
 41 T808 - Antonia's Friends 2019  06/19/2019 13:46 60.01  22.5  18.89 
 42 T406 - Operation Walk Midwest  06/19/2019 14:11 60.01  20.34  18.74 
 43 T412 - Team Aspect  06/19/2019 16:25 60.01  8.02  18.33 
 44 T418 - The Opportunists  06/19/2019 16:30 60.01  23.69  18.33 
 45 T410 - Soap-Aid  06/19/2019 18:43 60.01  24.17  17.9 
 46 T414 - Brazil Nuts  06/19/2019 19:34 60.01  33.03  17.76 
 47 T405 - High Rollers  06/19/2019 21:13 60.01  21.56  17.44 
 48 T803 - Team EndoPark  06/19/2019 21:38 60.01  22.79  17.42 
 49 T202 - Integra Medical - BAA Racing  06/19/2019 21:39 60.01  21.56  17.33 
 50 T415 - TEAM FIRE VELO 935  06/19/2019 22:56 60.01  18.56  17.18 
 51 T206 - Project Linear Acceleration  06/20/2019 0:07 60.01  15.26  16.94 
 52 T403 - EKJ Denmark  06/20/2019 0:24 60.01  18.75  16.91 
 53 T204 - Lucan CRC  06/20/2019 0:30 60.01  18.46  16.87 
 54 T402 - EA/WFP RAAM Team  06/20/2019 2:12 60.01  16.98  16.62 
 55 T806 - Team SuperMarrow  06/20/2019 2:41 60.01  18.37  16.61 
 56 T413 - TEAM BRASIL - SKIPPER  06/20/2019 2:53 60.01  11.65  16.55 
 57 T801 - Mind Over Matter  06/20/2019 3:27 60.01  18  16.48 
 58 T200 - AIR RELAX GoPro TEAM BRASIL  06/20/2019 6:10 60.01  18.18  16 
 59 T417 - Team4RAAM 2019 powered by TGW Living Logistics  06/20/2019 6:36 60.01  13.64  16 
 60 T409 - Serpentine Golden Girls  06/20/2019 14:14 60.01  16.37  14.96 
 61 T203 - JPsDuo  06/20/2019 17:00 60.01  15.79  14.59 
 62 T207 - Team Life Time  06/20/2019 19:10 60.01  17.31  14.34 
 63 T210 - Bike Wine Team  06/20/2019 22:55 60.01  19.05  13.92 
 64 T205 - Prevent Breast Cancer powered by Endomag  06/20/2019 23:19 60.01  15.13  13.87